sensor_id;sensor_type;location;lat;lon;timestamp;temperature;humidity
26599;DHT22;14240;51.064;16.612;2023-07-28T00:02:03;17.90;99.90
26599;DHT22;14240;51.064;16.612;2023-07-28T00:04:29;17.90;99.90
26599;DHT22;14240;51.064;16.612;2023-07-28T00:06:54;17.90;99.90
26599;DHT22;14240;51.064;16.612;2023-07-28T00:09:20;17.90;99.90
26599;DHT22;14240;51.064;16.612;2023-07-28T00:11:45;17.90;99.90
26599;DHT22;14240;51.064;16.612;2023-07-28T00:14:11;18.00;99.90
26599;DHT22;14240;51.064;16.612;2023-07-28T00:16:37;17.90;99.90
26599;DHT22;14240;51.064;16.612;2023-07-28T00:19:03;17.90;99.90
26599;DHT22;14240;51.064;16.612;2023-07-28T00:21:29;17.90;99.90
26599;DHT22;14240;51.064;16.612;2023-07-28T00:23:54;17.90;99.90
26599;DHT22;14240;51.064;16.612;2023-07-28T00:26:20;17.90;99.90
26599;DHT22;14240;51.064;16.612;2023-07-28T00:28:46;18.00;99.90
26599;DHT22;14240;51.064;16.612;2023-07-28T00:31:11;18.10;99.90
26599;DHT22;14240;51.064;16.612;2023-07-28T00:33:37;18.00;99.90
26599;DHT22;14240;51.064;16.612;2023-07-28T00:36:03;18.10;99.90
26599;DHT22;14240;51.064;16.612;2023-07-28T00:38:29;18.00;99.90
26599;DHT22;14240;51.064;16.612;2023-07-28T00:40:54;18.20;99.90
26599;DHT22;14240;51.064;16.612;2023-07-28T00:43:20;18.10;99.90
26599;DHT22;14240;51.064;16.612;2023-07-28T00:45:45;18.10;99.90
26599;DHT22;14240;51.064;16.612;2023-07-28T00:48:13;18.10;99.90
26599;DHT22;14240;51.064;16.612;2023-07-28T00:50:41;18.10;99.90
26599;DHT22;14240;51.064;16.612;2023-07-28T00:53:07;18.00;99.90
26599;DHT22;14240;51.064;16.612;2023-07-28T00:55:33;18.00;99.90
26599;DHT22;14240;51.064;16.612;2023-07-28T00:57:59;18.00;99.90
26599;DHT22;14240;51.064;16.612;2023-07-28T01:00:24;18.10;99.90
26599;DHT22;14240;51.064;16.612;2023-07-28T01:02:50;18.10;99.90
26599;DHT22;14240;51.064;16.612;2023-07-28T01:05:16;18.10;99.90
26599;DHT22;14240;51.064;16.612;2023-07-28T01:07:49;18.10;99.90
26599;DHT22;14240;51.064;16.612;2023-07-28T01:10:30;18.10;99.90
26599;DHT22;14240;51.064;16.612;2023-07-28T01:12:57;18.10;99.90
26599;DHT22;14240;51.064;16.612;2023-07-28T01:15:22;18.10;99.90
26599;DHT22;14240;51.064;16.612;2023-07-28T01:17:48;18.10;99.90
26599;DHT22;14240;51.064;16.612;2023-07-28T01:20:14;18.10;99.90
26599;DHT22;14240;51.064;16.612;2023-07-28T01:27:46;18.20;99.90
26599;DHT22;14240;51.064;16.612;2023-07-28T01:30:12;18.10;99.90
26599;DHT22;14240;51.064;16.612;2023-07-28T01:32:38;18.10;99.90
26599;DHT22;14240;51.064;16.612;2023-07-28T01:35:04;18.10;99.90
26599;DHT22;14240;51.064;16.612;2023-07-28T01:37:30;18.10;99.90
26599;DHT22;14240;51.064;16.612;2023-07-28T01:39:55;18.10;99.90
26599;DHT22;14240;51.064;16.612;2023-07-28T01:42:23;18.10;99.90
26599;DHT22;14240;51.064;16.612;2023-07-28T01:44:48;18.20;99.90
26599;DHT22;14240;51.064;16.612;2023-07-28T01:47:14;18.20;99.90
26599;DHT22;14240;51.064;16.612;2023-07-28T01:49:39;18.20;99.90
26599;DHT22;14240;51.064;16.612;2023-07-28T01:52:05;18.20;99.90
26599;DHT22;14240;51.064;16.612;2023-07-28T01:54:31;18.20;99.90
26599;DHT22;14240;51.064;16.612;2023-07-28T01:56:56;18.20;99.90
26599;DHT22;14240;51.064;16.612;2023-07-28T01:59:22;18.10;99.90
26599;DHT22;14240;51.064;16.612;2023-07-28T02:01:48;18.10;99.90
26599;DHT22;14240;51.064;16.612;2023-07-28T02:04:13;18.20;99.90
26599;DHT22;14240;51.064;16.612;2023-07-28T02:06:39;18.10;99.90
26599;DHT22;14240;51.064;16.612;2023-07-28T02:09:04;18.10;99.90
26599;DHT22;14240;51.064;16.612;2023-07-28T02:11:30;18.10;99.90
26599;DHT22;14240;51.064;16.612;2023-07-28T02:13:56;18.10;99.90
26599;DHT22;14240;51.064;16.612;2023-07-28T02:16:21;18.10;99.90
26599;DHT22;14240;51.064;16.612;2023-07-28T02:18:47;18.10;99.90
26599;DHT22;14240;51.064;16.612;2023-07-28T02:21:12;18.10;99.90
26599;DHT22;14240;51.064;16.612;2023-07-28T02:23:38;18.10;99.90
26599;DHT22;14240;51.064;16.612;2023-07-28T02:26:04;18.10;99.90
26599;DHT22;14240;51.064;16.612;2023-07-28T02:28:29;18.10;99.90
26599;DHT22;14240;51.064;16.612;2023-07-28T02:30:55;18.10;99.90
26599;DHT22;14240;51.064;16.612;2023-07-28T02:33:20;18.10;99.90
26599;DHT22;14240;51.064;16.612;2023-07-28T02:35:46;18.10;99.90
26599;DHT22;14240;51.064;16.612;2023-07-28T02:38:12;18.10;99.90
26599;DHT22;14240;51.064;16.612;2023-07-28T02:40:37;18.20;99.90
26599;DHT22;14240;51.064;16.612;2023-07-28T02:43:03;18.10;99.90
26599;DHT22;14240;51.064;16.612;2023-07-28T02:45:28;18.10;99.90
26599;DHT22;14240;51.064;16.612;2023-07-28T02:47:54;18.00;99.90
26599;DHT22;14240;51.064;16.612;2023-07-28T02:50:19;18.10;99.90
26599;DHT22;14240;51.064;16.612;2023-07-28T02:52:45;18.10;99.90
26599;DHT22;14240;51.064;16.612;2023-07-28T02:55:11;18.10;99.90
26599;DHT22;14240;51.064;16.612;2023-07-28T02:57:37;18.20;99.90
26599;DHT22;14240;51.064;16.612;2023-07-28T03:00:02;18.20;99.90
26599;DHT22;14240;51.064;16.612;2023-07-28T03:02:31;18.20;99.90
26599;DHT22;14240;51.064;16.612;2023-07-28T03:04:56;18.20;99.90
26599;DHT22;14240;51.064;16.612;2023-07-28T03:07:22;18.20;99.90
26599;DHT22;14240;51.064;16.612;2023-07-28T03:09:47;18.20;99.90
26599;DHT22;14240;51.064;16.612;2023-07-28T03:12:13;18.20;99.90
26599;DHT22;14240;51.064;16.612;2023-07-28T03:14:38;18.30;99.90
26599;DHT22;14240;51.064;16.612;2023-07-28T03:17:04;18.20;99.90
26599;DHT22;14240;51.064;16.612;2023-07-28T03:19:30;18.20;99.90
26599;DHT22;14240;51.064;16.612;2023-07-28T03:21:55;18.20;99.90
26599;DHT22;14240;51.064;16.612;2023-07-28T03:24:21;18.20;99.90
26599;DHT22;14240;51.064;16.612;2023-07-28T03:26:46;18.20;99.90
26599;DHT22;14240;51.064;16.612;2023-07-28T03:29:12;18.20;99.90
26599;DHT22;14240;51.064;16.612;2023-07-28T03:31:38;18.20;99.90
26599;DHT22;14240;51.064;16.612;2023-07-28T03:34:04;18.30;99.90
26599;DHT22;14240;51.064;16.612;2023-07-28T03:36:29;18.30;99.90
26599;DHT22;14240;51.064;16.612;2023-07-28T03:38:55;18.20;99.90
26599;DHT22;14240;51.064;16.612;2023-07-28T03:41:21;18.30;99.90
26599;DHT22;14240;51.064;16.612;2023-07-28T03:43:47;18.30;99.90
26599;DHT22;14240;51.064;16.612;2023-07-28T03:46:12;18.30;99.90
26599;DHT22;14240;51.064;16.612;2023-07-28T03:48:38;18.30;99.90
26599;DHT22;14240;51.064;16.612;2023-07-28T03:51:04;18.40;99.90
26599;DHT22;14240;51.064;16.612;2023-07-28T03:53:29;18.30;99.90
26599;DHT22;14240;51.064;16.612;2023-07-28T03:55:55;18.30;99.90
26599;DHT22;14240;51.064;16.612;2023-07-28T03:58:24;18.30;99.90
26599;DHT22;14240;51.064;16.612;2023-07-28T04:00:51;18.40;99.90
26599;DHT22;14240;51.064;16.612;2023-07-28T04:03:17;18.40;99.90
26599;DHT22;14240;51.064;16.612;2023-07-28T04:05:43;18.40;99.90
26599;DHT22;14240;51.064;16.612;2023-07-28T04:08:09;18.40;99.90
26599;DHT22;14240;51.064;16.612;2023-07-28T04:10:34;18.40;99.90
26599;DHT22;14240;51.064;16.612;2023-07-28T04:13:00;18.40;99.90
26599;DHT22;14240;51.064;16.612;2023-07-28T04:15:25;18.40;99.90
26599;DHT22;14240;51.064;16.612;2023-07-28T04:17:51;18.40;99.90
26599;DHT22;14240;51.064;16.612;2023-07-28T04:20:16;18.40;99.90
26599;DHT22;14240;51.064;16.612;2023-07-28T04:22:42;18.40;99.90
26599;DHT22;14240;51.064;16.612;2023-07-28T04:25:08;18.40;99.90
26599;DHT22;14240;51.064;16.612;2023-07-28T04:27:33;18.40;99.90
26599;DHT22;14240;51.064;16.612;2023-07-28T04:29:59;18.40;99.90
26599;DHT22;14240;51.064;16.612;2023-07-28T04:32:25;18.50;99.90
26599;DHT22;14240;51.064;16.612;2023-07-28T04:34:51;18.40;99.90
26599;DHT22;14240;51.064;16.612;2023-07-28T04:37:17;18.40;99.90
26599;DHT22;14240;51.064;16.612;2023-07-28T04:39:43;18.40;99.90
26599;DHT22;14240;51.064;16.612;2023-07-28T04:42:08;18.40;99.90
26599;DHT22;14240;51.064;16.612;2023-07-28T04:44:36;18.40;99.90
26599;DHT22;14240;51.064;16.612;2023-07-28T04:47:01;18.40;99.90
26599;DHT22;14240;51.064;16.612;2023-07-28T04:49:27;18.40;99.90
26599;DHT22;14240;51.064;16.612;2023-07-28T04:51:52;18.40;99.90
26599;DHT22;14240;51.064;16.612;2023-07-28T04:54:18;18.40;99.90
26599;DHT22;14240;51.064;16.612;2023-07-28T04:56:43;18.40;99.90
26599;DHT22;14240;51.064;16.612;2023-07-28T04:59:10;18.40;99.90
26599;DHT22;14240;51.064;16.612;2023-07-28T05:01:36;18.40;99.90
26599;DHT22;14240;51.064;16.612;2023-07-28T05:04:01;18.40;99.90
26599;DHT22;14240;51.064;16.612;2023-07-28T05:06:27;18.40;99.90
26599;DHT22;14240;51.064;16.612;2023-07-28T05:08:53;18.40;99.90
26599;DHT22;14240;51.064;16.612;2023-07-28T05:11:18;18.40;99.90
26599;DHT22;14240;51.064;16.612;2023-07-28T05:13:44;18.40;99.90
26599;DHT22;14240;51.064;16.612;2023-07-28T05:16:10;18.40;99.90
26599;DHT22;14240;51.064;16.612;2023-07-28T05:18:35;18.40;99.90
26599;DHT22;14240;51.064;16.612;2023-07-28T05:21:02;18.40;99.90
26599;DHT22;14240;51.064;16.612;2023-07-28T05:23:28;18.40;99.90
26599;DHT22;14240;51.064;16.612;2023-07-28T05:25:53;18.40;99.90
26599;DHT22;14240;51.064;16.612;2023-07-28T05:28:19;18.50;99.90
26599;DHT22;14240;51.064;16.612;2023-07-28T05:30:44;18.50;99.90
26599;DHT22;14240;51.064;16.612;2023-07-28T05:33:10;18.60;99.90
26599;DHT22;14240;51.064;16.612;2023-07-28T05:35:36;18.60;99.90
26599;DHT22;14240;51.064;16.612;2023-07-28T05:38:01;18.60;99.90
26599;DHT22;14240;51.064;16.612;2023-07-28T05:40:27;18.70;99.90
26599;DHT22;14240;51.064;16.612;2023-07-28T05:42:52;18.70;99.90
26599;DHT22;14240;51.064;16.612;2023-07-28T05:45:18;18.70;99.90
26599;DHT22;14240;51.064;16.612;2023-07-28T05:47:43;18.80;99.90
26599;DHT22;14240;51.064;16.612;2023-07-28T05:50:09;18.90;99.90
26599;DHT22;14240;51.064;16.612;2023-07-28T05:52:35;18.80;99.90
26599;DHT22;14240;51.064;16.612;2023-07-28T05:55:01;18.80;99.90
26599;DHT22;14240;51.064;16.612;2023-07-28T05:57:26;18.90;99.90
26599;DHT22;14240;51.064;16.612;2023-07-28T05:59:52;18.90;99.90
26599;DHT22;14240;51.064;16.612;2023-07-28T06:02:17;18.90;99.90
26599;DHT22;14240;51.064;16.612;2023-07-28T06:04:43;19.00;99.90
26599;DHT22;14240;51.064;16.612;2023-07-28T06:07:10;19.00;99.90
26599;DHT22;14240;51.064;16.612;2023-07-28T06:09:35;19.10;99.90
26599;DHT22;14240;51.064;16.612;2023-07-28T06:12:01;19.10;99.90
26599;DHT22;14240;51.064;16.612;2023-07-28T06:14:27;19.10;99.90
26599;DHT22;14240;51.064;16.612;2023-07-28T06:16:52;19.20;99.90
26599;DHT22;14240;51.064;16.612;2023-07-28T06:19:18;19.20;99.90
26599;DHT22;14240;51.064;16.612;2023-07-28T06:21:50;19.30;99.90
26599;DHT22;14240;51.064;16.612;2023-07-28T06:24:16;19.20;99.90
26599;DHT22;14240;51.064;16.612;2023-07-28T06:26:41;19.30;99.90
26599;DHT22;14240;51.064;16.612;2023-07-28T06:29:07;19.30;99.90
26599;DHT22;14240;51.064;16.612;2023-07-28T06:31:34;19.40;99.90
26599;DHT22;14240;51.064;16.612;2023-07-28T06:34:00;19.30;99.90
26599;DHT22;14240;51.064;16.612;2023-07-28T06:36:25;19.40;99.90
26599;DHT22;14240;51.064;16.612;2023-07-28T06:38:51;19.40;99.90
26599;DHT22;14240;51.064;16.612;2023-07-28T06:41:18;19.40;99.90
26599;DHT22;14240;51.064;16.612;2023-07-28T06:43:43;19.60;99.90
26599;DHT22;14240;51.064;16.612;2023-07-28T06:46:09;19.50;99.90
26599;DHT22;14240;51.064;16.612;2023-07-28T06:48:35;19.60;99.90
26599;DHT22;14240;51.064;16.612;2023-07-28T06:51:00;19.60;99.90
26599;DHT22;14240;51.064;16.612;2023-07-28T06:53:26;19.60;99.90
26599;DHT22;14240;51.064;16.612;2023-07-28T06:55:52;19.60;99.90
26599;DHT22;14240;51.064;16.612;2023-07-28T06:58:18;19.70;99.90
26599;DHT22;14240;51.064;16.612;2023-07-28T07:00:43;19.70;99.90
26599;DHT22;14240;51.064;16.612;2023-07-28T07:03:10;19.70;99.90
26599;DHT22;14240;51.064;16.612;2023-07-28T07:05:36;19.70;99.90
26599;DHT22;14240;51.064;16.612;2023-07-28T07:08:01;19.80;99.90
26599;DHT22;14240;51.064;16.612;2023-07-28T07:10:27;19.90;99.90
26599;DHT22;14240;51.064;16.612;2023-07-28T07:12:53;19.90;99.90
26599;DHT22;14240;51.064;16.612;2023-07-28T07:15:18;20.00;99.90
26599;DHT22;14240;51.064;16.612;2023-07-28T07:17:44;20.00;99.90
26599;DHT22;14240;51.064;16.612;2023-07-28T07:20:10;20.10;99.90
26599;DHT22;14240;51.064;16.612;2023-07-28T07:22:36;20.20;99.90
26599;DHT22;14240;51.064;16.612;2023-07-28T07:25:03;20.20;99.90
26599;DHT22;14240;51.064;16.612;2023-07-28T07:27:29;20.20;99.90
26599;DHT22;14240;51.064;16.612;2023-07-28T07:29:55;20.30;99.90
26599;DHT22;14240;51.064;16.612;2023-07-28T07:32:20;20.30;99.90
26599;DHT22;14240;51.064;16.612;2023-07-28T07:34:46;20.30;99.90
26599;DHT22;14240;51.064;16.612;2023-07-28T07:37:12;20.30;99.90
26599;DHT22;14240;51.064;16.612;2023-07-28T07:39:38;20.50;99.90
26599;DHT22;14240;51.064;16.612;2023-07-28T07:42:06;20.40;99.90
26599;DHT22;14240;51.064;16.612;2023-07-28T07:44:32;20.40;99.90
26599;DHT22;14240;51.064;16.612;2023-07-28T07:47:00;20.40;99.90
26599;DHT22;14240;51.064;16.612;2023-07-28T07:49:26;20.40;99.90
26599;DHT22;14240;51.064;16.612;2023-07-28T07:51:51;20.40;99.90
26599;DHT22;14240;51.064;16.612;2023-07-28T07:54:17;20.40;99.90
26599;DHT22;14240;51.064;16.612;2023-07-28T07:56:44;20.40;99.90
26599;DHT22;14240;51.064;16.612;2023-07-28T07:59:10;20.40;99.90
26599;DHT22;14240;51.064;16.612;2023-07-28T08:01:35;20.40;99.90
26599;DHT22;14240;51.064;16.612;2023-07-28T08:04:01;20.40;99.90
26599;DHT22;14240;51.064;16.612;2023-07-28T08:06:27;20.40;99.90
26599;DHT22;14240;51.064;16.612;2023-07-28T08:08:52;20.40;99.90
26599;DHT22;14240;51.064;16.612;2023-07-28T08:11:19;20.40;99.90
26599;DHT22;14240;51.064;16.612;2023-07-28T08:13:44;20.50;99.90
26599;DHT22;14240;51.064;16.612;2023-07-28T08:16:10;20.50;99.90
26599;DHT22;14240;51.064;16.612;2023-07-28T08:18:36;20.50;99.90
26599;DHT22;14240;51.064;16.612;2023-07-28T08:21:02;20.70;99.90
26599;DHT22;14240;51.064;16.612;2023-07-28T08:23:27;20.50;99.90
26599;DHT22;14240;51.064;16.612;2023-07-28T08:25:53;20.50;99.90
26599;DHT22;14240;51.064;16.612;2023-07-28T08:28:19;20.60;99.90
26599;DHT22;14240;51.064;16.612;2023-07-28T08:30:44;20.50;99.90
26599;DHT22;14240;51.064;16.612;2023-07-28T08:33:10;20.50;99.90
26599;DHT22;14240;51.064;16.612;2023-07-28T08:35:35;20.70;99.90
26599;DHT22;14240;51.064;16.612;2023-07-28T08:38:01;20.70;99.90
26599;DHT22;14240;51.064;16.612;2023-07-28T08:40:26;20.80;99.90
26599;DHT22;14240;51.064;16.612;2023-07-28T08:42:53;20.90;99.90
26599;DHT22;14240;51.064;16.612;2023-07-28T08:45:19;20.90;99.90
26599;DHT22;14240;51.064;16.612;2023-07-28T08:47:46;21.00;99.90
26599;DHT22;14240;51.064;16.612;2023-07-28T08:50:11;21.10;99.90
26599;DHT22;14240;51.064;16.612;2023-07-28T08:52:37;21.00;99.90
26599;DHT22;14240;51.064;16.612;2023-07-28T08:55:03;21.10;99.90
26599;DHT22;14240;51.064;16.612;2023-07-28T08:57:29;21.20;99.90
26599;DHT22;14240;51.064;16.612;2023-07-28T08:59:55;21.30;99.90
26599;DHT22;14240;51.064;16.612;2023-07-28T09:02:21;21.50;99.90
26599;DHT22;14240;51.064;16.612;2023-07-28T09:04:48;21.70;99.90
26599;DHT22;14240;51.064;16.612;2023-07-28T09:07:14;21.80;99.90
26599;DHT22;14240;51.064;16.612;2023-07-28T09:09:40;21.90;99.90
26599;DHT22;14240;51.064;16.612;2023-07-28T09:12:06;22.00;99.90
26599;DHT22;14240;51.064;16.612;2023-07-28T09:14:35;22.10;99.90
26599;DHT22;14240;51.064;16.612;2023-07-28T09:17:12;22.20;99.90
26599;DHT22;14240;51.064;16.612;2023-07-28T09:19:56;22.30;99.90
26599;DHT22;14240;51.064;16.612;2023-07-28T09:22:22;22.40;99.90
26599;DHT22;14240;51.064;16.612;2023-07-28T09:24:49;22.50;99.90
26599;DHT22;14240;51.064;16.612;2023-07-28T09:27:24;22.60;99.90
26599;DHT22;14240;51.064;16.612;2023-07-28T09:29:51;22.60;99.90
26599;DHT22;14240;51.064;16.612;2023-07-28T09:32:30;22.80;99.90
26599;DHT22;14240;51.064;16.612;2023-07-28T09:35:08;22.90;99.90
26599;DHT22;14240;51.064;16.612;2023-07-28T09:37:37;23.00;99.90
26599;DHT22;14240;51.064;16.612;2023-07-28T09:40:06;23.10;99.90
26599;DHT22;14240;51.064;16.612;2023-07-28T09:42:32;23.20;99.90
26599;DHT22;14240;51.064;16.612;2023-07-28T09:44:58;23.20;99.90
26599;DHT22;14240;51.064;16.612;2023-07-28T09:47:24;23.30;99.90
26599;DHT22;14240;51.064;16.612;2023-07-28T09:49:50;23.40;99.90
26599;DHT22;14240;51.064;16.612;2023-07-28T09:52:20;23.50;99.90
26599;DHT22;14240;51.064;16.612;2023-07-28T09:54:48;23.50;99.90
26599;DHT22;14240;51.064;16.612;2023-07-28T09:57:20;23.60;99.90
26599;DHT22;14240;51.064;16.612;2023-07-28T09:59:47;23.60;99.90
26599;DHT22;14240;51.064;16.612;2023-07-28T10:02:13;23.60;99.90
26599;DHT22;14240;51.064;16.612;2023-07-28T10:04:40;23.70;99.90
26599;DHT22;14240;51.064;16.612;2023-07-28T10:07:07;23.70;99.90
26599;DHT22;14240;51.064;16.612;2023-07-28T10:09:34;23.80;99.90
26599;DHT22;14240;51.064;16.612;2023-07-28T10:12:01;23.90;99.90
26599;DHT22;14240;51.064;16.612;2023-07-28T10:14:34;23.90;99.90
26599;DHT22;14240;51.064;16.612;2023-07-28T10:17:04;24.00;99.90
26599;DHT22;14240;51.064;16.612;2023-07-28T10:19:34;24.00;99.90
26599;DHT22;14240;51.064;16.612;2023-07-28T10:22:07;24.00;99.90
26599;DHT22;14240;51.064;16.612;2023-07-28T10:24:57;24.00;99.90
26599;DHT22;14240;51.064;16.612;2023-07-28T10:27:36;24.00;99.90
26599;DHT22;14240;51.064;16.612;2023-07-28T10:30:04;24.00;99.90
26599;DHT22;14240;51.064;16.612;2023-07-28T10:32:43;24.10;99.90
26599;DHT22;14240;51.064;16.612;2023-07-28T10:35:27;24.20;99.90
26599;DHT22;14240;51.064;16.612;2023-07-28T10:37:54;24.20;99.90
26599;DHT22;14240;51.064;16.612;2023-07-28T10:42:51;24.50;99.90
26599;DHT22;14240;51.064;16.612;2023-07-28T10:45:17;24.60;99.90
26599;DHT22;14240;51.064;16.612;2023-07-28T10:47:44;24.60;99.90
26599;DHT22;14240;51.064;16.612;2023-07-28T10:50:11;24.60;99.90
26599;DHT22;14240;51.064;16.612;2023-07-28T10:52:44;24.60;99.90
26599;DHT22;14240;51.064;16.612;2023-07-28T10:57:43;24.60;99.90
26599;DHT22;14240;51.064;16.612;2023-07-28T11:00:11;24.60;99.90
26599;DHT22;14240;51.064;16.612;2023-07-28T11:02:42;24.70;99.90
26599;DHT22;14240;51.064;16.612;2023-07-28T11:05:18;24.80;99.90
26599;DHT22;14240;51.064;16.612;2023-07-28T11:07:44;24.90;99.90
26599;DHT22;14240;51.064;16.612;2023-07-28T11:10:19;25.10;99.90
26599;DHT22;14240;51.064;16.612;2023-07-28T11:12:48;25.20;99.90
26599;DHT22;14240;51.064;16.612;2023-07-28T11:15:15;25.30;99.90
26599;DHT22;14240;51.064;16.612;2023-07-28T11:17:47;25.40;99.90
26599;DHT22;14240;51.064;16.612;2023-07-28T11:20:17;25.50;99.90
26599;DHT22;14240;51.064;16.612;2023-07-28T11:22:44;25.50;99.90
26599;DHT22;14240;51.064;16.612;2023-07-28T11:25:11;25.50;99.90
26599;DHT22;14240;51.064;16.612;2023-07-28T11:27:37;25.60;99.90
26599;DHT22;14240;51.064;16.612;2023-07-28T11:30:04;25.80;99.90
26599;DHT22;14240;51.064;16.612;2023-07-28T11:32:31;25.90;99.90
26599;DHT22;14240;51.064;16.612;2023-07-28T11:35:05;26.00;99.90
26599;DHT22;14240;51.064;16.612;2023-07-28T11:37:33;26.00;99.90
26599;DHT22;14240;51.064;16.612;2023-07-28T11:39:59;26.10;99.90
26599;DHT22;14240;51.064;16.612;2023-07-28T11:42:26;26.20;99.90
26599;DHT22;14240;51.064;16.612;2023-07-28T11:44:52;26.20;99.90
26599;DHT22;14240;51.064;16.612;2023-07-28T11:47:18;26.30;99.90
26599;DHT22;14240;51.064;16.612;2023-07-28T11:49:49;26.30;99.90
26599;DHT22;14240;51.064;16.612;2023-07-28T11:52:16;26.30;99.90
26599;DHT22;14240;51.064;16.612;2023-07-28T11:54:43;26.40;99.90
26599;DHT22;14240;51.064;16.612;2023-07-28T11:57:10;26.50;99.70
26599;DHT22;14240;51.064;16.612;2023-07-28T11:59:36;26.60;99.40
26599;DHT22;14240;51.064;16.612;2023-07-28T12:02:03;26.70;99.30
26599;DHT22;14240;51.064;16.612;2023-07-28T12:04:36;26.70;99.20
26599;DHT22;14240;51.064;16.612;2023-07-28T12:07:05;26.70;99.10
26599;DHT22;14240;51.064;16.612;2023-07-28T12:12:20;26.90;99.50
26599;DHT22;14240;51.064;16.612;2023-07-28T12:14:46;26.90;99.60
26599;DHT22;14240;51.064;16.612;2023-07-28T12:17:20;27.00;99.10
26599;DHT22;14240;51.064;16.612;2023-07-28T12:20:04;27.00;98.70
26599;DHT22;14240;51.064;16.612;2023-07-28T12:22:33;27.00;98.70
26599;DHT22;14240;51.064;16.612;2023-07-28T12:24:58;27.00;98.70
26599;DHT22;14240;51.064;16.612;2023-07-28T12:27:24;26.90;98.50
26599;DHT22;14240;51.064;16.612;2023-07-28T12:29:52;26.90;98.40
26599;DHT22;14240;51.064;16.612;2023-07-28T12:32:18;26.90;98.70
26599;DHT22;14240;51.064;16.612;2023-07-28T12:34:43;26.80;99.10
26599;DHT22;14240;51.064;16.612;2023-07-28T12:37:09;26.90;98.50
26599;DHT22;14240;51.064;16.612;2023-07-28T12:39:37;26.90;98.10
26599;DHT22;14240;51.064;16.612;2023-07-28T12:42:07;26.80;97.90
26599;DHT22;14240;51.064;16.612;2023-07-28T12:44:33;26.80;98.00
26599;DHT22;14240;51.064;16.612;2023-07-28T12:46:59;26.80;97.90
26599;DHT22;14240;51.064;16.612;2023-07-28T12:49:24;26.90;97.90
26599;DHT22;14240;51.064;16.612;2023-07-28T12:51:50;26.80;97.80
26599;DHT22;14240;51.064;16.612;2023-07-28T12:54:16;26.80;97.80
26599;DHT22;14240;51.064;16.612;2023-07-28T12:56:44;26.80;98.10
26599;DHT22;14240;51.064;16.612;2023-07-28T12:59:11;26.80;98.40
26599;DHT22;14240;51.064;16.612;2023-07-28T13:01:37;26.80;98.40
26599;DHT22;14240;51.064;16.612;2023-07-28T13:04:03;26.90;98.60
26599;DHT22;14240;51.064;16.612;2023-07-28T13:06:29;26.90;98.50
26599;DHT22;14240;51.064;16.612;2023-07-28T13:08:54;27.00;98.20
26599;DHT22;14240;51.064;16.612;2023-07-28T13:11:20;27.00;97.80
26599;DHT22;14240;51.064;16.612;2023-07-28T13:13:46;27.00;98.10
26599;DHT22;14240;51.064;16.612;2023-07-28T13:16:11;27.10;98.10
26599;DHT22;14240;51.064;16.612;2023-07-28T13:18:37;27.20;97.80
26599;DHT22;14240;51.064;16.612;2023-07-28T13:21:04;27.20;97.80
26599;DHT22;14240;51.064;16.612;2023-07-28T13:23:31;27.20;97.80
26599;DHT22;14240;51.064;16.612;2023-07-28T13:25:57;27.20;97.20
26599;DHT22;14240;51.064;16.612;2023-07-28T13:28:22;27.20;97.50
26599;DHT22;14240;51.064;16.612;2023-07-28T13:30:49;27.20;97.20
26599;DHT22;14240;51.064;16.612;2023-07-28T13:33:14;27.30;96.90
26599;DHT22;14240;51.064;16.612;2023-07-28T13:35:40;27.30;96.80
26599;DHT22;14240;51.064;16.612;2023-07-28T13:38:06;27.30;96.10
26599;DHT22;14240;51.064;16.612;2023-07-28T13:40:31;27.40;95.70
26599;DHT22;14240;51.064;16.612;2023-07-28T13:42:57;27.50;95.20
26599;DHT22;14240;51.064;16.612;2023-07-28T13:45:22;27.50;95.10
26599;DHT22;14240;51.064;16.612;2023-07-28T13:47:48;27.50;95.20
26599;DHT22;14240;51.064;16.612;2023-07-28T13:50:14;27.60;94.70
26599;DHT22;14240;51.064;16.612;2023-07-28T13:52:39;27.60;94.30
26599;DHT22;14240;51.064;16.612;2023-07-28T13:55:05;27.60;94.30
26599;DHT22;14240;51.064;16.612;2023-07-28T13:57:33;27.70;94.30
26599;DHT22;14240;51.064;16.612;2023-07-28T13:59:59;27.70;94.00
26599;DHT22;14240;51.064;16.612;2023-07-28T14:02:25;27.70;93.90
26599;DHT22;14240;51.064;16.612;2023-07-28T14:04:50;27.70;94.00
26599;DHT22;14240;51.064;16.612;2023-07-28T14:07:16;27.70;93.50
26599;DHT22;14240;51.064;16.612;2023-07-28T14:09:41;27.70;93.40
26599;DHT22;14240;51.064;16.612;2023-07-28T14:12:07;27.70;93.60
26599;DHT22;14240;51.064;16.612;2023-07-28T14:14:33;27.70;93.90
26599;DHT22;14240;51.064;16.612;2023-07-28T14:16:59;27.70;93.90
26599;DHT22;14240;51.064;16.612;2023-07-28T14:19:24;27.70;93.40
26599;DHT22;14240;51.064;16.612;2023-07-28T14:21:50;27.80;93.00
26599;DHT22;14240;51.064;16.612;2023-07-28T14:24:15;27.80;92.90
26599;DHT22;14240;51.064;16.612;2023-07-28T14:26:41;27.80;93.10
26599;DHT22;14240;51.064;16.612;2023-07-28T14:29:06;27.90;93.00
26599;DHT22;14240;51.064;16.612;2023-07-28T14:31:32;27.90;92.80
26599;DHT22;14240;51.064;16.612;2023-07-28T14:33:58;27.90;92.50
26599;DHT22;14240;51.064;16.612;2023-07-28T14:36:23;27.90;92.20
26599;DHT22;14240;51.064;16.612;2023-07-28T14:38:49;27.90;92.30
26599;DHT22;14240;51.064;16.612;2023-07-28T14:41:15;27.80;91.60
26599;DHT22;14240;51.064;16.612;2023-07-28T14:43:40;27.80;91.20
26599;DHT22;14240;51.064;16.612;2023-07-28T14:46:06;27.70;91.50
26599;DHT22;14240;51.064;16.612;2023-07-28T14:48:31;27.70;91.70
26599;DHT22;14240;51.064;16.612;2023-07-28T14:50:57;27.70;92.00
26599;DHT22;14240;51.064;16.612;2023-07-28T14:53:34;27.70;91.90
26599;DHT22;14240;51.064;16.612;2023-07-28T14:56:00;27.70;91.70
26599;DHT22;14240;51.064;16.612;2023-07-28T14:58:27;27.70;92.00
26599;DHT22;14240;51.064;16.612;2023-07-28T15:00:53;27.70;91.70
26599;DHT22;14240;51.064;16.612;2023-07-28T15:03:19;27.60;91.80
26599;DHT22;14240;51.064;16.612;2023-07-28T15:05:44;27.70;91.90
26599;DHT22;14240;51.064;16.612;2023-07-28T15:08:10;27.70;91.80
26599;DHT22;14240;51.064;16.612;2023-07-28T15:10:36;27.60;91.50
26599;DHT22;14240;51.064;16.612;2023-07-28T15:13:01;27.50;92.00
26599;DHT22;14240;51.064;16.612;2023-07-28T15:15:27;27.50;92.00
26599;DHT22;14240;51.064;16.612;2023-07-28T15:17:52;27.50;91.90
26599;DHT22;14240;51.064;16.612;2023-07-28T15:20:18;27.40;91.80
26599;DHT22;14240;51.064;16.612;2023-07-28T15:22:46;27.50;91.90
26599;DHT22;14240;51.064;16.612;2023-07-28T15:25:15;27.40;91.30